sensor_id;sensor_type;location;lat;lon;timestamp;P1;durP1;ratioP1;P2;durP2;ratioP2
20393;SDS011;10356;50.544;9.642;2022-07-18T00:01:15;3.40;;;1.00;;
20393;SDS011;10356;50.544;9.642;2022-07-18T00:03:43;3.38;;;0.90;;
20393;SDS011;10356;50.544;9.642;2022-07-18T00:06:09;3.63;;;1.05;;
20393;SDS011;10356;50.544;9.642;2022-07-18T00:08:36;4.43;;;1.23;;
20393;SDS011;10356;50.544;9.642;2022-07-18T00:11:02;2.67;;;1.10;;
20393;SDS011;10356;50.544;9.642;2022-07-18T00:13:29;3.90;;;0.90;;
20393;SDS011;10356;50.544;9.642;2022-07-18T00:15:56;4.72;;;0.90;;
20393;SDS011;10356;50.544;9.642;2022-07-18T00:18:22;2.03;;;0.90;;
20393;SDS011;10356;50.544;9.642;2022-07-18T00:20:50;4.22;;;1.10;;
20393;SDS011;10356;50.544;9.642;2022-07-18T00:23:17;2.58;;;1.00;;
20393;SDS011;10356;50.544;9.642;2022-07-18T00:25:43;3.47;;;0.95;;
20393;SDS011;10356;50.544;9.642;2022-07-18T00:28:10;2.70;;;1.27;;
20393;SDS011;10356;50.544;9.642;2022-07-18T00:30:37;1.13;;;0.75;;
20393;SDS011;10356;50.544;9.642;2022-07-18T00:33:03;3.13;;;1.20;;
20393;SDS011;10356;50.544;9.642;2022-07-18T00:35:30;5.13;;;1.30;;
20393;SDS011;10356;50.544;9.642;2022-07-18T00:37:58;3.53;;;0.80;;
20393;SDS011;10356;50.544;9.642;2022-07-18T00:40:26;5.13;;;1.20;;
20393;SDS011;10356;50.544;9.642;2022-07-18T00:42:53;3.83;;;1.00;;
20393;SDS011;10356;50.544;9.642;2022-07-18T00:45:19;2.20;;;1.10;;
20393;SDS011;10356;50.544;9.642;2022-07-18T00:47:46;1.67;;;1.00;;
20393;SDS011;10356;50.544;9.642;2022-07-18T00:50:15;1.90;;;0.85;;
20393;SDS011;10356;50.544;9.642;2022-07-18T00:52:42;2.17;;;0.98;;
20393;SDS011;10356;50.544;9.642;2022-07-18T00:55:10;1.60;;;0.85;;
20393;SDS011;10356;50.544;9.642;2022-07-18T00:57:37;4.47;;;1.30;;
20393;SDS011;10356;50.544;9.642;2022-07-18T01:00:13;4.75;;;1.20;;
20393;SDS011;10356;50.544;9.642;2022-07-18T01:03:13;2.65;;;1.00;;
20393;SDS011;10356;50.544;9.642;2022-07-18T01:05:39;2.15;;;0.95;;
20393;SDS011;10356;50.544;9.642;2022-07-18T01:08:06;1.38;;;1.00;;
20393;SDS011;10356;50.544;9.642;2022-07-18T01:10:34;5.63;;;1.17;;
20393;SDS011;10356;50.544;9.642;2022-07-18T01:13:00;2.97;;;0.90;;
20393;SDS011;10356;50.544;9.642;2022-07-18T01:15:27;2.53;;;1.40;;
20393;SDS011;10356;50.544;9.642;2022-07-18T01:17:54;2.42;;;0.82;;
20393;SDS011;10356;50.544;9.642;2022-07-18T01:20:20;3.25;;;1.20;;
20393;SDS011;10356;50.544;9.642;2022-07-18T01:22:48;1.88;;;1.00;;
20393;SDS011;10356;50.544;9.642;2022-07-18T01:25:14;2.67;;;1.13;;
20393;SDS011;10356;50.544;9.642;2022-07-18T01:27:42;2.80;;;0.90;;
20393;SDS011;10356;50.544;9.642;2022-07-18T01:30:09;1.77;;;0.88;;
20393;SDS011;10356;50.544;9.642;2022-07-18T01:32:35;2.30;;;0.88;;
20393;SDS011;10356;50.544;9.642;2022-07-18T01:35:02;2.15;;;0.93;;
20393;SDS011;10356;50.544;9.642;2022-07-18T01:37:29;1.80;;;1.00;;
20393;SDS011;10356;50.544;9.642;2022-07-18T01:39:57;1.15;;;0.90;;
20393;SDS011;10356;50.544;9.642;2022-07-18T01:42:24;6.43;;;1.10;;
20393;SDS011;10356;50.544;9.642;2022-07-18T01:44:50;3.90;;;1.25;;
20393;SDS011;10356;50.544;9.642;2022-07-18T01:47:17;2.58;;;0.93;;
20393;SDS011;10356;50.544;9.642;2022-07-18T01:49:43;2.83;;;0.98;;
20393;SDS011;10356;50.544;9.642;2022-07-18T01:52:10;2.25;;;1.02;;
20393;SDS011;10356;50.544;9.642;2022-07-18T01:54:37;1.50;;;0.90;;
20393;SDS011;10356;50.544;9.642;2022-07-18T01:57:05;3.58;;;1.15;;
20393;SDS011;10356;50.544;9.642;2022-07-18T01:59:32;1.90;;;1.00;;
20393;SDS011;10356;50.544;9.642;2022-07-18T02:01:59;1.70;;;1.00;;
20393;SDS011;10356;50.544;9.642;2022-07-18T02:04:26;2.75;;;1.00;;
20393;SDS011;10356;50.544;9.642;2022-07-18T02:07:06;1.50;;;1.00;;
20393;SDS011;10356;50.544;9.642;2022-07-18T02:09:33;3.47;;;1.17;;
20393;SDS011;10356;50.544;9.642;2022-07-18T02:12:00;2.42;;;1.25;;
20393;SDS011;10356;50.544;9.642;2022-07-18T02:14:28;2.28;;;1.23;;
20393;SDS011;10356;50.544;9.642;2022-07-18T02:16:54;3.50;;;1.30;;
20393;SDS011;10356;50.544;9.642;2022-07-18T02:19:21;1.48;;;1.05;;
20393;SDS011;10356;50.544;9.642;2022-07-18T02:21:47;2.30;;;1.13;;
20393;SDS011;10356;50.544;9.642;2022-07-18T02:24:14;2.50;;;1.05;;
20393;SDS011;10356;50.544;9.642;2022-07-18T02:26:40;2.95;;;1.10;;
20393;SDS011;10356;50.544;9.642;2022-07-18T02:29:07;3.28;;;1.30;;
20393;SDS011;10356;50.544;9.642;2022-07-18T02:31:34;2.22;;;1.00;;
20393;SDS011;10356;50.544;9.642;2022-07-18T02:34:01;4.63;;;1.00;;
20393;SDS011;10356;50.544;9.642;2022-07-18T02:36:34;2.78;;;1.23;;
20393;SDS011;10356;50.544;9.642;2022-07-18T02:39:01;4.40;;;1.13;;
20393;SDS011;10356;50.544;9.642;2022-07-18T02:41:28;1.55;;;1.00;;
20393;SDS011;10356;50.544;9.642;2022-07-18T02:43:54;2.42;;;1.10;;
20393;SDS011;10356;50.544;9.642;2022-07-18T02:46:21;3.10;;;1.10;;
20393;SDS011;10356;50.544;9.642;2022-07-18T02:48:49;2.17;;;1.20;;
20393;SDS011;10356;50.544;9.642;2022-07-18T02:51:15;1.75;;;1.20;;
20393;SDS011;10356;50.544;9.642;2022-07-18T02:53:42;1.90;;;1.15;;
20393;SDS011;10356;50.544;9.642;2022-07-18T02:56:08;1.88;;;1.10;;
20393;SDS011;10356;50.544;9.642;2022-07-18T02:58:35;2.35;;;1.30;;
20393;SDS011;10356;50.544;9.642;2022-07-18T03:01:02;4.70;;;1.10;;
20393;SDS011;10356;50.544;9.642;2022-07-18T03:03:29;5.55;;;1.33;;
20393;SDS011;10356;50.544;9.642;2022-07-18T03:05:56;1.67;;;1.00;;
20393;SDS011;10356;50.544;9.642;2022-07-18T03:08:23;1.17;;;1.00;;
20393;SDS011;10356;50.544;9.642;2022-07-18T03:10:49;5.78;;;2.03;;
20393;SDS011;10356;50.544;9.642;2022-07-18T03:13:16;4.05;;;1.40;;
20393;SDS011;10356;50.544;9.642;2022-07-18T03:15:43;3.00;;;1.20;;
20393;SDS011;10356;50.544;9.642;2022-07-18T03:18:09;4.63;;;1.20;;
20393;SDS011;10356;50.544;9.642;2022-07-18T03:20:36;2.58;;;1.15;;
20393;SDS011;10356;50.544;9.642;2022-07-18T03:23:05;1.52;;;1.17;;
20393;SDS011;10356;50.544;9.642;2022-07-18T03:25:32;2.97;;;1.15;;
20393;SDS011;10356;50.544;9.642;2022-07-18T03:27:58;4.55;;;1.42;;
20393;SDS011;10356;50.544;9.642;2022-07-18T03:30:25;4.30;;;1.60;;
20393;SDS011;10356;50.544;9.642;2022-07-18T03:32:52;4.35;;;1.17;;
20393;SDS011;10356;50.544;9.642;2022-07-18T03:35:18;3.42;;;1.10;;
20393;SDS011;10356;50.544;9.642;2022-07-18T03:37:45;4.60;;;1.27;;
20393;SDS011;10356;50.544;9.642;2022-07-18T03:40:12;2.35;;;1.30;;
20393;SDS011;10356;50.544;9.642;2022-07-18T03:42:39;2.50;;;1.23;;
20393;SDS011;10356;50.544;9.642;2022-07-18T03:45:06;3.30;;;1.38;;
20393;SDS011;10356;50.544;9.642;2022-07-18T03:47:34;3.05;;;1.33;;
20393;SDS011;10356;50.544;9.642;2022-07-18T03:50:01;2.75;;;1.33;;
20393;SDS011;10356;50.544;9.642;2022-07-18T03:52:27;2.88;;;1.30;;
20393;SDS011;10356;50.544;9.642;2022-07-18T03:54:54;6.88;;;1.45;;
20393;SDS011;10356;50.544;9.642;2022-07-18T03:57:22;3.65;;;1.50;;
20393;SDS011;10356;50.544;9.642;2022-07-18T03:59:48;1.75;;;1.35;;
20393;SDS011;10356;50.544;9.642;2022-07-18T04:02:15;3.70;;;1.60;;
20393;SDS011;10356;50.544;9.642;2022-07-18T04:04:41;3.10;;;1.30;;
20393;SDS011;10356;50.544;9.642;2022-07-18T04:07:08;2.42;;;1.20;;
20393;SDS011;10356;50.544;9.642;2022-07-18T04:09:34;2.35;;;1.33;;
20393;SDS011;10356;50.544;9.642;2022-07-18T04:12:01;3.60;;;1.33;;
20393;SDS011;10356;50.544;9.642;2022-07-18T04:14:29;2.92;;;1.23;;
20393;SDS011;10356;50.544;9.642;2022-07-18T04:16:55;1.40;;;1.05;;
20393;SDS011;10356;50.544;9.642;2022-07-18T04:19:22;4.35;;;1.23;;
20393;SDS011;10356;50.544;9.642;2022-07-18T04:21:50;3.30;;;1.30;;
20393;SDS011;10356;50.544;9.642;2022-07-18T04:24:16;1.80;;;1.10;;
20393;SDS011;10356;50.544;9.642;2022-07-18T04:26:43;2.83;;;1.30;;
20393;SDS011;10356;50.544;9.642;2022-07-18T04:29:09;5.43;;;1.20;;
20393;SDS011;10356;50.544;9.642;2022-07-18T04:31:37;1.83;;;1.20;;
20393;SDS011;10356;50.544;9.642;2022-07-18T04:34:04;2.53;;;1.23;;
20393;SDS011;10356;50.544;9.642;2022-07-18T04:36:30;5.28;;;1.40;;
20393;SDS011;10356;50.544;9.642;2022-07-18T04:38:57;3.78;;;1.50;;
20393;SDS011;10356;50.544;9.642;2022-07-18T04:41:23;3.15;;;1.15;;
20393;SDS011;10356;50.544;9.642;2022-07-18T04:43:50;4.45;;;1.20;;
20393;SDS011;10356;50.544;9.642;2022-07-18T04:46:17;2.72;;;1.30;;
20393;SDS011;10356;50.544;9.642;2022-07-18T04:48:44;2.53;;;1.30;;
20393;SDS011;10356;50.544;9.642;2022-07-18T04:51:11;2.90;;;1.30;;
20393;SDS011;10356;50.544;9.642;2022-07-18T04:53:39;4.22;;;1.52;;
20393;SDS011;10356;50.544;9.642;2022-07-18T04:56:05;4.50;;;1.58;;
20393;SDS011;10356;50.544;9.642;2022-07-18T04:58:32;2.08;;;1.38;;
20393;SDS011;10356;50.544;9.642;2022-07-18T05:00:58;3.60;;;1.90;;
20393;SDS011;10356;50.544;9.642;2022-07-18T05:03:25;1.73;;;1.40;;
20393;SDS011;10356;50.544;9.642;2022-07-18T05:05:53;3.45;;;1.30;;
20393;SDS011;10356;50.544;9.642;2022-07-18T05:08:19;3.67;;;1.70;;
20393;SDS011;10356;50.544;9.642;2022-07-18T05:10:46;5.30;;;2.00;;
20393;SDS011;10356;50.544;9.642;2022-07-18T05:13:12;2.38;;;1.67;;
20393;SDS011;10356;50.544;9.642;2022-07-18T05:15:39;3.13;;;1.58;;
20393;SDS011;10356;50.544;9.642;2022-07-18T05:18:05;3.25;;;1.50;;
20393;SDS011;10356;50.544;9.642;2022-07-18T05:20:32;3.05;;;1.60;;
20393;SDS011;10356;50.544;9.642;2022-07-18T05:23:00;5.90;;;1.67;;
20393;SDS011;10356;50.544;9.642;2022-07-18T05:25:26;3.00;;;1.50;;
20393;SDS011;10356;50.544;9.642;2022-07-18T05:27:53;3.30;;;1.70;;
20393;SDS011;10356;50.544;9.642;2022-07-18T05:30:20;5.93;;;1.80;;
20393;SDS011;10356;50.544;9.642;2022-07-18T05:32:48;3.28;;;1.63;;
20393;SDS011;10356;50.544;9.642;2022-07-18T05:35:15;4.20;;;1.60;;
20393;SDS011;10356;50.544;9.642;2022-07-18T05:37:42;2.95;;;1.60;;
20393;SDS011;10356;50.544;9.642;2022-07-18T05:40:11;5.53;;;1.85;;
20393;SDS011;10356;50.544;9.642;2022-07-18T05:42:39;4.43;;;1.60;;
20393;SDS011;10356;50.544;9.642;2022-07-18T05:45:06;2.17;;;1.30;;
20393;SDS011;10356;50.544;9.642;2022-07-18T05:47:34;6.50;;;1.73;;
20393;SDS011;10356;50.544;9.642;2022-07-18T05:50:00;4.80;;;1.52;;
20393;SDS011;10356;50.544;9.642;2022-07-18T05:52:27;7.13;;;1.92;;
20393;SDS011;10356;50.544;9.642;2022-07-18T05:54:53;4.68;;;1.70;;
20393;SDS011;10356;50.544;9.642;2022-07-18T05:57:21;4.47;;;1.40;;
20393;SDS011;10356;50.544;9.642;2022-07-18T05:59:48;4.00;;;1.67;;
20393;SDS011;10356;50.544;9.642;2022-07-18T06:02:14;5.72;;;1.70;;
20393;SDS011;10356;50.544;9.642;2022-07-18T06:04:41;2.90;;;1.50;;
20393;SDS011;10356;50.544;9.642;2022-07-18T06:07:08;2.70;;;1.50;;
20393;SDS011;10356;50.544;9.642;2022-07-18T06:09:34;3.55;;;1.40;;
20393;SDS011;10356;50.544;9.642;2022-07-18T06:12:02;3.28;;;1.80;;
20393;SDS011;10356;50.544;9.642;2022-07-18T06:14:30;4.10;;;1.65;;
20393;SDS011;10356;50.544;9.642;2022-07-18T06:16:57;8.30;;;2.10;;
20393;SDS011;10356;50.544;9.642;2022-07-18T06:19:24;4.18;;;1.90;;
20393;SDS011;10356;50.544;9.642;2022-07-18T06:21:51;11.63;;;2.13;;
20393;SDS011;10356;50.544;9.642;2022-07-18T06:24:18;9.30;;;2.03;;
20393;SDS011;10356;50.544;9.642;2022-07-18T06:26:44;6.70;;;2.45;;
20393;SDS011;10356;50.544;9.642;2022-07-18T06:29:11;5.93;;;2.45;;
20393;SDS011;10356;50.544;9.642;2022-07-18T06:31:38;5.20;;;1.70;;
20393;SDS011;10356;50.544;9.642;2022-07-18T06:34:05;5.78;;;1.75;;
20393;SDS011;10356;50.544;9.642;2022-07-18T06:36:32;4.72;;;1.60;;
20393;SDS011;10356;50.544;9.642;2022-07-18T06:38:58;5.68;;;1.90;;
20393;SDS011;10356;50.544;9.642;2022-07-18T06:41:25;3.03;;;1.50;;
20393;SDS011;10356;50.544;9.642;2022-07-18T06:43:52;1.58;;;1.27;;
20393;SDS011;10356;50.544;9.642;2022-07-18T06:46:18;5.80;;;1.98;;
20393;SDS011;10356;50.544;9.642;2022-07-18T06:48:47;4.10;;;2.00;;
20393;SDS011;10356;50.544;9.642;2022-07-18T06:51:13;4.40;;;1.83;;
20393;SDS011;10356;50.544;9.642;2022-07-18T06:53:40;6.00;;;1.70;;
20393;SDS011;10356;50.544;9.642;2022-07-18T06:56:06;4.43;;;2.20;;
20393;SDS011;10356;50.544;9.642;2022-07-18T06:58:33;4.68;;;1.58;;
20393;SDS011;10356;50.544;9.642;2022-07-18T07:01:00;6.07;;;1.80;;
20393;SDS011;10356;50.544;9.642;2022-07-18T07:03:26;6.68;;;2.00;;
20393;SDS011;10356;50.544;9.642;2022-07-18T07:05:54;4.40;;;2.20;;
20393;SDS011;10356;50.544;9.642;2022-07-18T07:08:21;5.32;;;2.38;;
20393;SDS011;10356;50.544;9.642;2022-07-18T07:10:47;3.97;;;1.83;;
20393;SDS011;10356;50.544;9.642;2022-07-18T07:13:14;3.05;;;1.52;;
20393;SDS011;10356;50.544;9.642;2022-07-18T07:15:40;5.80;;;1.98;;
20393;SDS011;10356;50.544;9.642;2022-07-18T07:18:08;5.00;;;1.85;;
20393;SDS011;10356;50.544;9.642;2022-07-18T07:20:34;5.75;;;2.08;;
20393;SDS011;10356;50.544;9.642;2022-07-18T07:23:02;3.03;;;1.70;;
20393;SDS011;10356;50.544;9.642;2022-07-18T07:25:32;4.45;;;1.85;;
20393;SDS011;10356;50.544;9.642;2022-07-18T07:27:59;3.90;;;1.67;;
20393;SDS011;10356;50.544;9.642;2022-07-18T07:30:26;4.97;;;1.90;;
20393;SDS011;10356;50.544;9.642;2022-07-18T07:32:53;5.53;;;1.88;;
20393;SDS011;10356;50.544;9.642;2022-07-18T07:35:20;6.55;;;1.65;;
20393;SDS011;10356;50.544;9.642;2022-07-18T07:37:48;3.83;;;1.73;;
20393;SDS011;10356;50.544;9.642;2022-07-18T07:40:17;6.22;;;1.83;;
20393;SDS011;10356;50.544;9.642;2022-07-18T07:42:44;3.90;;;1.80;;
20393;SDS011;10356;50.544;9.642;2022-07-18T07:45:11;6.18;;;1.85;;
20393;SDS011;10356;50.544;9.642;2022-07-18T07:47:39;3.97;;;1.65;;
20393;SDS011;10356;50.544;9.642;2022-07-18T07:50:07;7.50;;;1.95;;
20393;SDS011;10356;50.544;9.642;2022-07-18T07:52:35;4.00;;;1.70;;
20393;SDS011;10356;50.544;9.642;2022-07-18T07:55:02;2.05;;;1.38;;
20393;SDS011;10356;50.544;9.642;2022-07-18T07:57:31;3.60;;;2.00;;
20393;SDS011;10356;50.544;9.642;2022-07-18T08:00:00;7.15;;;1.90;;
20393;SDS011;10356;50.544;9.642;2022-07-18T08:02:29;7.97;;;1.80;;
20393;SDS011;10356;50.544;9.642;2022-07-18T08:04:55;2.33;;;1.20;;
20393;SDS011;10356;50.544;9.642;2022-07-18T08:07:22;4.22;;;1.67;;
20393;SDS011;10356;50.544;9.642;2022-07-18T08:09:49;3.92;;;2.25;;
20393;SDS011;10356;50.544;9.642;2022-07-18T08:12:16;3.38;;;1.80;;
20393;SDS011;10356;50.544;9.642;2022-07-18T08:14:43;9.70;;;2.28;;
20393;SDS011;10356;50.544;9.642;2022-07-18T08:17:10;4.25;;;1.80;;
20393;SDS011;10356;50.544;9.642;2022-07-18T08:19:36;5.65;;;1.98;;
20393;SDS011;10356;50.544;9.642;2022-07-18T08:22:03;6.30;;;2.30;;
20393;SDS011;10356;50.544;9.642;2022-07-18T08:24:31;7.25;;;1.90;;
20393;SDS011;10356;50.544;9.642;2022-07-18T08:26:57;4.75;;;1.70;;
20393;SDS011;10356;50.544;9.642;2022-07-18T08:29:24;5.18;;;1.60;;
20393;SDS011;10356;50.544;9.642;2022-07-18T08:31:52;2.70;;;1.25;;
20393;SDS011;10356;50.544;9.642;2022-07-18T08:34:18;5.72;;;1.60;;
20393;SDS011;10356;50.544;9.642;2022-07-18T08:36:45;4.03;;;1.70;;
20393;SDS011;10356;50.544;9.642;2022-07-18T08:39:11;5.82;;;1.75;;
20393;SDS011;10356;50.544;9.642;2022-07-18T08:41:38;5.82;;;1.95;;
20393;SDS011;10356;50.544;9.642;2022-07-18T08:44:08;2.20;;;1.33;;
20393;SDS011;10356;50.544;9.642;2022-07-18T08:46:36;3.45;;;1.55;;
20393;SDS011;10356;50.544;9.642;2022-07-18T08:49:07;4.13;;;1.38;;
20393;SDS011;10356;50.544;9.642;2022-07-18T08:51:34;5.22;;;1.50;;
20393;SDS011;10356;50.544;9.642;2022-07-18T08:54:01;2.92;;;1.50;;
20393;SDS011;10356;50.544;9.642;2022-07-18T08:56:28;3.90;;;1.38;;
20393;SDS011;10356;50.544;9.642;2022-07-18T08:58:55;3.65;;;1.60;;
20393;SDS011;10356;50.544;9.642;2022-07-18T09:01:22;2.03;;;1.13;;
20393;SDS011;10356;50.544;9.642;2022-07-18T09:03:48;4.10;;;1.10;;
20393;SDS011;10356;50.544;9.642;2022-07-18T09:06:42;2.67;;;1.30;;
20393;SDS011;10356;50.544;9.642;2022-07-18T09:09:11;4.95;;;1.20;;
20393;SDS011;10356;50.544;9.642;2022-07-18T09:11:48;4.90;;;1.50;;
20393;SDS011;10356;50.544;9.642;2022-07-18T09:14:29;2.72;;;1.38;;
20393;SDS011;10356;50.544;9.642;2022-07-18T09:17:01;3.83;;;1.50;;
20393;SDS011;10356;50.544;9.642;2022-07-18T09:19:30;2.92;;;1.45;;
20393;SDS011;10356;50.544;9.642;2022-07-18T09:22:14;2.35;;;1.50;;
20393;SDS011;10356;50.544;9.642;2022-07-18T09:24:49;3.53;;;1.10;;
20393;SDS011;10356;50.544;9.642;2022-07-18T09:27:23;2.83;;;1.20;;
20393;SDS011;10356;50.544;9.642;2022-07-18T09:30:06;3.17;;;1.30;;
20393;SDS011;10356;50.544;9.642;2022-07-18T09:32:37;3.53;;;1.38;;
20393;SDS011;10356;50.544;9.642;2022-07-18T09:35:05;1.80;;;0.95;;
20393;SDS011;10356;50.544;9.642;2022-07-18T09:37:34;2.30;;;1.00;;
20393;SDS011;10356;50.544;9.642;2022-07-18T09:40:14;2.65;;;1.20;;
20393;SDS011;10356;50.544;9.642;2022-07-18T09:42:42;1.42;;;1.02;;
20393;SDS011;10356;50.544;9.642;2022-07-18T09:45:09;2.28;;;1.10;;
20393;SDS011;10356;50.544;9.642;2022-07-18T09:47:47;3.42;;;0.98;;
20393;SDS011;10356;50.544;9.642;2022-07-18T09:50:19;2.67;;;0.90;;
20393;SDS011;10356;50.544;9.642;2022-07-18T09:52:56;2.45;;;1.10;;
20393;SDS011;10356;50.544;9.642;2022-07-18T09:55:23;1.13;;;0.88;;
20393;SDS011;10356;50.544;9.642;2022-07-18T09:57:57;2.50;;;1.23;;
20393;SDS011;10356;50.544;9.642;2022-07-18T10:00:30;3.13;;;1.20;;
20393;SDS011;10356;50.544;9.642;2022-07-18T10:02:58;4.13;;;1.52;;
20393;SDS011;10356;50.544;9.642;2022-07-18T10:05:27;4.63;;;1.35;;
20393;SDS011;10356;50.544;9.642;2022-07-18T10:07:56;3.10;;;1.13;;
20393;SDS011;10356;50.544;9.642;2022-07-18T10:10:22;3.38;;;1.08;;
20393;SDS011;10356;50.544;9.642;2022-07-18T10:12:51;4.03;;;1.10;;
20393;SDS011;10356;50.544;9.642;2022-07-18T10:15:20;5.55;;;1.33;;
20393;SDS011;10356;50.544;9.642;2022-07-18T10:17:48;1.45;;;0.80;;
20393;SDS011;10356;50.544;9.642;2022-07-18T10:20:15;3.85;;;1.20;;
20393;SDS011;10356;50.544;9.642;2022-07-18T10:22:42;2.38;;;1.02;;
20393;SDS011;10356;50.544;9.642;2022-07-18T10:25:11;2.53;;;1.15;;
20393;SDS011;10356;50.544;9.642;2022-07-18T10:27:48;2.92;;;1.20;;
20393;SDS011;10356;50.544;9.642;2022-07-18T10:30:16;4.18;;;1.40;;
20393;SDS011;10356;50.544;9.642;2022-07-18T10:32:44;4.30;;;1.17;;
20393;SDS011;10356;50.544;9.642;2022-07-18T10:35:11;3.58;;;1.30;;
20393;SDS011;10356;50.544;9.642;2022-07-18T10:37:42;1.13;;;0.70;;
20393;SDS011;10356;50.544;9.642;2022-07-18T10:40:22;6.93;;;1.10;;
20393;SDS011;10356;50.544;9.642;2022-07-18T10:45:55;1.88;;;1.17;;
20393;SDS011;10356;50.544;9.642;2022-07-18T10:51:30;3.03;;;1.20;;
20393;SDS011;10356;50.544;9.642;2022-07-18T10:54:03;2.53;;;1.48;;
20393;SDS011;10356;50.544;9.642;2022-07-18T10:59:34;2.47;;;1.15;;
20393;SDS011;10356;50.544;9.642;2022-07-18T11:02:03;4.95;;;1.05;;
20393;SDS011;10356;50.544;9.642;2022-07-18T11:04:33;2.22;;;1.35;;
20393;SDS011;10356;50.544;9.642;2022-07-18T11:07:06;2.92;;;1.52;;
20393;SDS011;10356;50.544;9.642;2022-07-18T11:09:36;1.80;;;1.13;;
20393;SDS011;10356;50.544;9.642;2022-07-18T11:12:18;3.25;;;1.17;;
20393;SDS011;10356;50.544;9.642;2022-07-18T11:14:58;1.88;;;1.20;;
20393;SDS011;10356;50.544;9.642;2022-07-18T11:20:28;1.48;;;1.08;;
20393;SDS011;10356;50.544;9.642;2022-07-18T11:23:02;2.15;;;1.33;;
20393;SDS011;10356;50.544;9.642;2022-07-18T11:25:30;3.90;;;1.38;;
20393;SDS011;10356;50.544;9.642;2022-07-18T11:27:58;3.85;;;1.20;;
20393;SDS011;10356;50.544;9.642;2022-07-18T11:30:25;3.20;;;1.30;;
20393;SDS011;10356;50.544;9.642;2022-07-18T11:32:52;1.50;;;1.10;;
20393;SDS011;10356;50.544;9.642;2022-07-18T11:35:22;3.83;;;1.05;;
20393;SDS011;10356;50.544;9.642;2022-07-18T11:37:50;2.95;;;1.60;;
20393;SDS011;10356;50.544;9.642;2022-07-18T11:40:18;3.58;;;1.30;;
20393;SDS011;10356;50.544;9.642;2022-07-18T11:42:45;2.03;;;1.15;;
20393;SDS011;10356;50.544;9.642;2022-07-18T11:45:14;3.47;;;1.20;;
20393;SDS011;10356;50.544;9.642;2022-07-18T11:47:46;5.50;;;1.40;;
20393;SDS011;10356;50.544;9.642;2022-07-18T11:50:14;2.67;;;1.20;;
20393;SDS011;10356;50.544;9.642;2022-07-18T11:52:42;2.72;;;1.15;;
20393;SDS011;10356;50.544;9.642;2022-07-18T11:55:10;3.63;;;1.17;;
20393;SDS011;10356;50.544;9.642;2022-07-18T11:57:38;3.90;;;1.10;;
20393;SDS011;10356;50.544;9.642;2022-07-18T12:00:16;2.70;;;1.08;;
20393;SDS011;10356;50.544;9.642;2022-07-18T12:05:31;3.20;;;1.13;;
20393;SDS011;10356;50.544;9.642;2022-07-18T12:07:59;1.50;;;1.05;;
20393;SDS011;10356;50.544;9.642;2022-07-18T12:10:25;1.35;;;1.10;;
20393;SDS011;10356;50.544;9.642;2022-07-18T12:12:52;2.40;;;1.25;;
20393;SDS011;10356;50.544;9.642;2022-07-18T12:15:20;2.17;;;1.13;;
20393;SDS011;10356;50.544;9.642;2022-07-18T12:17:48;2.60;;;0.95;;
20393;SDS011;10356;50.544;9.642;2022-07-18T12:20:16;3.13;;;1.35;;
20393;SDS011;10356;50.544;9.642;2022-07-18T12:23:02;2.47;;;1.40;;
20393;SDS011;10356;50.544;9.642;2022-07-18T12:25:38;2.67;;;1.25;;
20393;SDS011;10356;50.544;9.642;2022-07-18T12:28:12;4.55;;;1.40;;
20393;SDS011;10356;50.544;9.642;2022-07-18T12:30:41;1.58;;;1.20;;
20393;SDS011;10356;50.544;9.642;2022-07-18T12:33:08;4.60;;;1.20;;
20393;SDS011;10356;50.544;9.642;2022-07-18T12:35:36;3.60;;;1.40;;
20393;SDS011;10356;50.544;9.642;2022-07-18T12:38:04;2.38;;;1.17;;
20393;SDS011;10356;50.544;9.642;2022-07-18T12:40:39;3.30;;;1.20;;
20393;SDS011;10356;50.544;9.642;2022-07-18T12:43:09;7.03;;;1.25;;
20393;SDS011;10356;50.544;9.642;2022-07-18T12:45:36;6.82;;;1.17;;
20393;SDS011;10356;50.544;9.642;2022-07-18T12:48:06;3.42;;;1.67;;
20393;SDS011;10356;50.544;9.642;2022-07-18T12:50:34;4.07;;;1.30;;
20393;SDS011;10356;50.544;9.642;2022-07-18T12:53:01;2.92;;;1.30;;
20393;SDS011;10356;50.544;9.642;2022-07-18T12:55:27;3.15;;;1.35;;
20393;SDS011;10356;50.544;9.642;2022-07-18T12:57:54;2.40;;;1.17;;
20393;SDS011;10356;50.544;9.642;2022-07-18T13:00:20;1.27;;;1.13;;
20393;SDS011;10356;50.544;9.642;2022-07-18T13:02:47;2.17;;;1.23;;
20393;SDS011;10356;50.544;9.642;2022-07-18T13:05:15;2.00;;;1.42;;
20393;SDS011;10356;50.544;9.642;2022-07-18T13:07:41;3.90;;;1.30;;
20393;SDS011;10356;50.544;9.642;2022-07-18T13:10:08;2.35;;;1.25;;
20393;SDS011;10356;50.544;9.642;2022-07-18T13:12:35;2.50;;;1.40;;
20393;SDS011;10356;50.544;9.642;2022-07-18T13:15:01;3.25;;;1.40;;
20393;SDS011;10356;50.544;9.642;2022-07-18T13:17:28;1.20;;;1.10;;
20393;SDS011;10356;50.544;9.642;2022-07-18T13:19:54;2.30;;;1.42;;
20393;SDS011;10356;50.544;9.642;2022-07-18T13:22:22;2.85;;;1.40;;
20393;SDS011;10356;50.544;9.642;2022-07-18T13:24:49;2.92;;;1.50;;
20393;SDS011;10356;50.544;9.642;2022-07-18T13:27:15;2.30;;;1.30;;
20393;SDS011;10356;50.544;9.642;2022-07-18T13:29:44;3.17;;;1.23;;
20393;SDS011;10356;50.544;9.642;2022-07-18T13:32:10;3.28;;;1.60;;
20393;SDS011;10356;50.544;9.642;2022-07-18T13:34:37;2.28;;;1.48;;
20393;SDS011;10356;50.544;9.642;2022-07-18T13:37:03;2.67;;;1.23;;
20393;SDS011;10356;50.544;9.642;2022-07-18T13:39:31;2.28;;;1.30;;
20393;SDS011;10356;50.544;9.642;2022-07-18T13:41:58;3.80;;;1.27;;
20393;SDS011;10356;50.544;9.642;2022-07-18T13:44:27;2.20;;;1.40;;
20393;SDS011;10356;50.544;9.642;2022-07-18T13:46:54;2.08;;;1.48;;
20393;SDS011;10356;50.544;9.642;2022-07-18T13:49:20;3.20;;;1.63;;
20393;SDS011;10356;50.544;9.642;2022-07-18T13:51:47;2.80;;;1.45;;
20393;SDS011;10356;50.544;9.642;2022-07-18T13:54:13;2.55;;;1.38;;
20393;SDS011;10356;50.544;9.642;2022-07-18T13:56:45;2.67;;;1.60;;
20393;SDS011;10356;50.544;9.642;2022-07-18T13:59:11;6.72;;;1.60;;
20393;SDS011;10356;50.544;9.642;2022-07-18T14:01:38;7.00;;;1.27;;
20393;SDS011;10356;50.544;9.642;2022-07-18T14:04:05;6.30;;;1.67;;
20393;SDS011;10356;50.544;9.642;2022-07-18T14:06:32;2.28;;;1.33;;
20393;SDS011;10356;50.544;9.642;2022-07-18T14:09:00;3.30;;;1.67;;
20393;SDS011;10356;50.544;9.642;2022-07-18T14:11:26;3.88;;;1.30;;
20393;SDS011;10356;50.544;9.642;2022-07-18T14:13:54;4.35;;;1.73;;
20393;SDS011;10356;50.544;9.642;2022-07-18T14:16:21;2.78;;;1.52;;
20393;SDS011;10356;50.544;9.642;2022-07-18T14:18:47;1.80;;;1.38;;
20393;SDS011;10356;50.544;9.642;2022-07-18T14:21:14;2.17;;;1.40;;
20393;SDS011;10356;50.544;9.642;2022-07-18T14:23:40;4.45;;;1.70;;
20393;SDS011;10356;50.544;9.642;2022-07-18T14:26:07;3.10;;;1.48;;
20393;SDS011;10356;50.544;9.642;2022-07-18T14:28:33;2.85;;;1.30;;
20393;SDS011;10356;50.544;9.642;2022-07-18T14:31:01;2.75;;;1.33;;
20393;SDS011;10356;50.544;9.642;2022-07-18T14:33:28;3.03;;;1.33;;
20393;SDS011;10356;50.544;9.642;2022-07-18T14:35:55;3.67;;;1.30;;
20393;SDS011;10356;50.544;9.642;2022-07-18T14:38:21;1.95;;;1.58;;
20393;SDS011;10356;50.544;9.642;2022-07-18T14:40:48;3.30;;;1.25;;
20393;SDS011;10356;50.544;9.642;2022-07-18T14:43:14;3.90;;;1.45;;
20393;SDS011;10356;50.544;9.642;2022-07-18T14:45:41;2.58;;;1.30;;
20393;SDS011;10356;50.544;9.642;2022-07-18T14:48:08;2.58;;;1.48;;
20393;SDS011;10356;50.544;9.642;2022-07-18T14:50:35;4.35;;;1.45;;
20393;SDS011;10356;50.544;9.642;2022-07-18T14:53:02;2.20;;;1.48;;
20393;SDS011;10356;50.544;9.642;2022-07-18T14:55:29;1.92;;;1.23;;
20393;SDS011;10356;50.544;9.642;2022-07-18T14:57:55;3.05;;;1.90;;
20393;SDS011;10356;50.544;9.642;2022-07-18T15:00:22;2.35;;;1.30;;
20393;SDS011;10356;50.544;9.642;2022-07-18T15:02:48;5.15;;;1.73;;
20393;SDS011;10356;50.544;9.642;2022-07-18T15:05:16;2.78;;;1.58;;
20393;SDS011;10356;50.544;9.642;2022-07-18T15:07:43;3.03;;;1.65;;